Terminal Aerodrome Forecast
Issued by NWS Charleston, WV

Current Version | Previous Version | Text Only | Print | Product List | Glossary Off
Versions: 1 2 3 4 5 6 7 8 9 10 11 12 13 14 15 16 17 18 19 20 21 22

000
FTUS41 KRLX 291700
TAFEKN
TAF
KEKN 291736Z 2918/3018 26006KT P6SM BKN027 BKN040 OVC070
     FM292000 28011KT P6SM SCT070
     FM300700 30004KT 5SM BR SCT030
     FM300900 30004KT 1SM BR SCT001 SCT030
     FM301400 VRB03KT P6SM SCT035=

USA.gov is the U.S. government's official web portal to all federal, state and local government web resources and services.